SAOU/LUQ METAR and TAF weather

Enter ICAO airport designator
Station Type Date Time Source
SAOU METAR 2020/04/26 22:25 UTC NOAA

SAOU 262225Z 00000KT 9999 BKN035 SCT100 18/16 Q1018


Station Type Date Time Source
SAOU Decoded METAR 2020/04/26 22:25 UTC NOAA

San Luis Aerodrome, Argentina (SAOU) 33-16S 066-21W 713M
Apr 26, 2020 - 06:25 PM EDT / 2020.04.26 2225 UTC
Wind: Calm:0
Visibility: greater than 7 mile(s):0
Sky conditions: mostly cloudy
Temperature: 64 F (18 C)
Dew Point: 60 F (16 C)
Relative Humidity: 88%
Pressure (altimeter): 30.06 in. Hg (1018 hPa)
ob: SAOU 262225Z 00000KT 9999 BKN035 SCT100 18/16 Q1018
cycle: 22

Station Type Date Time Source
SAOU TAF 2019/11/14 19:21 UTC NOAA

TAF TAF
AMD SAOU 141900Z 1419/1518 07010KT 7000 TSRA SCT030 FEW040CB SCT080 TX32/1419Z TN21/1509Z
BECMG 1421/1423 11010KT 9999 VCTS SCT040 FEW050CB PROB40
TEMPO 1502/1506 14010KT 6000 TSRA BKN020 FEW030CB
BECMG 1507/1509 07005KT 9999 NSW SCT030

Example: see airport list